createdAt,value
2022-09-28T00:01:26.139Z,6.35
2022-09-28T00:06:41.792Z,4.57
2022-09-28T00:09:50.175Z,6.90
2022-09-28T00:12:33.518Z,11.68
2022-09-28T00:15:03.865Z,4.60
2022-09-28T00:21:06.777Z,6.72
2022-09-28T00:23:34.220Z,6.47
2022-09-28T00:26:12.985Z,4.32
2022-09-28T00:29:11.107Z,4.45
2022-09-28T00:31:42.849Z,12.55
2022-09-28T00:34:13.789Z,3.40
2022-09-28T00:36:45.377Z,6.70
2022-09-28T00:39:14.663Z,3.95
2022-09-28T00:41:42.710Z,8.68
2022-09-28T00:44:24.721Z,2.90
2022-09-28T00:47:25.610Z,7.70
2022-09-28T00:50:05.947Z,10.85
2022-09-28T00:52:59.003Z,5.43
2022-09-28T00:55:39.787Z,6.00
2022-09-28T00:58:19.506Z,6.68
2022-09-28T01:01:16.889Z,4.28
2022-09-28T01:03:50.876Z,12.25
2022-09-28T01:10:22.593Z,4.78
2022-09-28T01:13:32.825Z,8.02
2022-09-28T01:20:04.619Z,6.10
2022-09-28T01:23:21.745Z,11.65
2022-09-28T01:27:01.877Z,6.00
2022-09-28T01:29:45.850Z,6.50
2022-09-28T01:32:36.599Z,6.68
2022-09-28T01:36:05.218Z,11.65
2022-09-28T01:42:02.193Z,4.18
2022-09-28T01:44:42.522Z,4.28
2022-09-28T01:47:22.380Z,8.33
2022-09-28T01:50:03.608Z,6.15
2022-09-28T01:55:47.097Z,8.48
2022-09-28T02:02:27.443Z,6.85
2022-09-28T02:05:03.811Z,10.68
2022-09-28T02:08:03.730Z,11.70
2022-09-28T02:10:47.549Z,6.93
2022-09-28T02:13:33.137Z,9.73
2022-09-28T02:16:36.242Z,18.23
2022-09-28T02:22:38.636Z,7.70
2022-09-28T02:25:34.729Z,13.35
2022-09-28T02:28:08.227Z,10.80
2022-09-28T02:30:41.264Z,11.10
2022-09-28T02:33:33.826Z,7.57
2022-09-28T02:36:19.422Z,6.57
2022-09-28T02:38:50.186Z,5.82
2022-09-28T02:41:39.890Z,7.40
2022-09-28T02:44:22.472Z,7.85
2022-09-28T02:47:51.027Z,9.20
2022-09-28T02:50:59.225Z,6.03
2022-09-28T02:53:58.869Z,5.30
2022-09-28T02:56:47.052Z,4.20
2022-09-28T03:02:58.756Z,10.70
2022-09-28T03:05:50.246Z,4.50
2022-09-28T03:08:49.674Z,11.82
2022-09-28T03:11:35.546Z,4.20
2022-09-28T03:14:03.402Z,3.17
2022-09-28T03:16:32.138Z,8.68
2022-09-28T03:21:56.008Z,6.43
2022-09-28T03:24:47.708Z,7.35
2022-09-28T03:27:51.318Z,3.45
2022-09-28T03:30:28.406Z,3.78
2022-09-28T03:33:10.237Z,11.02
2022-09-28T03:35:36.890Z,11.77
2022-09-28T03:38:06.422Z,7.97
2022-09-28T03:40:33.071Z,7.78
2022-09-28T03:43:05.826Z,4.32
2022-09-28T03:45:36.777Z,10.57
2022-09-28T03:48:13.441Z,7.97
2022-09-28T03:50:40.988Z,9.20
2022-09-28T03:53:08.040Z,4.63
2022-09-28T03:55:36.191Z,8.73
2022-09-28T04:00:50.193Z,4.85
2022-09-28T04:03:22.237Z,8.23
2022-09-28T04:05:56.111Z,9.02
2022-09-28T04:08:22.676Z,8.23
2022-09-28T04:10:49.230Z,6.25
2022-09-28T04:13:15.892Z,12.77
2022-09-28T04:15:43.503Z,10.80
2022-09-28T04:18:17.121Z,8.93
2022-09-28T04:20:48.143Z,11.75
2022-09-28T04:23:25.947Z,13.90
2022-09-28T04:26:06.971Z,8.52
2022-09-28T04:28:52.444Z,12.80
2022-09-28T04:31:23.796Z,10.00
2022-09-28T04:33:51.976Z,13.18
2022-09-28T04:36:22.133Z,21.02
2022-09-28T04:38:53.194Z,15.48
2022-09-28T04:41:22.522Z,9.25
2022-09-28T04:43:49.919Z,19.80
2022-09-28T04:46:29.729Z,8.68
2022-09-28T04:49:03.806Z,15.57
2022-09-28T04:51:39.521Z,10.63
2022-09-28T04:54:15.096Z,12.15
2022-09-28T04:56:41.898Z,6.55
2022-09-28T04:59:14.711Z,25.33
2022-09-28T05:02:05.291Z,25.10
2022-09-28T05:04:32.061Z,25.10
2022-09-28T05:07:04.323Z,35.97
2022-09-28T05:09:41.118Z,55.38
2022-09-28T05:12:09.781Z,47.03
2022-09-28T05:14:36.310Z,45.78
2022-09-28T05:17:12.554Z,35.47
2022-09-28T05:19:41.939Z,32.85
2022-09-28T05:22:15.707Z,29.92
2022-09-28T05:25:09.290Z,25.75
2022-09-28T05:27:44.828Z,16.25
2022-09-28T05:30:19.588Z,12.00
2022-09-28T05:32:52.714Z,15.73
2022-09-28T05:35:19.446Z,12.48
2022-09-28T05:37:49.851Z,11.13
2022-09-28T05:40:17.208Z,12.27
2022-09-28T05:42:43.830Z,12.15
2022-09-28T05:45:10.995Z,8.95
2022-09-28T05:47:48.886Z,19.50
2022-09-28T05:50:21.054Z,20.38
2022-09-28T05:52:51.643Z,12.98
2022-09-28T05:55:18.213Z,22.30
2022-09-28T05:57:44.860Z,12.95
2022-09-28T06:00:20.412Z,15.55
2022-09-28T06:03:08.081Z,13.50
2022-09-28T06:05:52.091Z,11.65
2022-09-28T06:11:46.980Z,12.60
2022-09-28T06:14:23.076Z,14.73
2022-09-28T06:16:50.294Z,19.85
2022-09-28T06:22:17.415Z,9.88
2022-09-28T06:24:44.039Z,11.05
2022-09-28T06:30:53.713Z,7.68
2022-09-28T06:36:30.258Z,9.07
2022-09-28T06:39:07.209Z,19.85
2022-09-28T06:42:09.648Z,12.30
2022-09-28T06:45:09.328Z,19.33
2022-09-28T06:47:56.992Z,24.50
2022-09-28T06:50:43.095Z,28.08
2022-09-28T06:53:18.549Z,22.55
2022-09-28T06:55:51.862Z,23.17
2022-09-28T06:58:20.830Z,17.25
2022-09-28T07:00:59.397Z,18.08
2022-09-28T07:03:34.141Z,22.95
2022-09-28T07:06:12.918Z,13.60
2022-09-28T07:08:56.561Z,7.65
2022-09-28T07:11:44.925Z,10.50
2022-09-28T07:14:28.002Z,15.05
2022-09-28T07:17:13.056Z,10.93
2022-09-28T07:22:41.179Z,11.07
2022-09-28T07:25:27.483Z,23.67
2022-09-28T07:28:11.045Z,26.88
2022-09-28T07:30:56.611Z,23.35
2022-09-28T07:33:34.576Z,24.02
2022-09-28T07:36:15.817Z,14.45
2022-09-28T07:38:45.261Z,11.63
2022-09-28T07:41:24.021Z,15.18
2022-09-28T07:44:37.963Z,14.70
2022-09-28T07:47:11.937Z,15.95
2022-09-28T07:50:21.381Z,8.50
2022-09-28T07:52:53.229Z,10.77
2022-09-28T07:55:21.387Z,12.00
2022-09-28T07:57:54.339Z,8.15
2022-09-28T08:00:34.227Z,11.57
2022-09-28T08:03:04.266Z,8.55
2022-09-28T08:05:39.432Z,8.80
2022-09-28T08:08:12.230Z,13.70
2022-09-28T08:10:43.378Z,14.43
2022-09-28T08:13:12.445Z,8.43
2022-09-28T08:15:39.128Z,12.45
2022-09-28T08:18:06.114Z,6.93
2022-09-28T08:20:52.140Z,7.97
2022-09-28T08:23:20.347Z,9.13
2022-09-28T08:25:49.163Z,16.33
2022-09-28T08:28:18.013Z,11.00
2022-09-28T08:30:49.082Z,15.27
2022-09-28T08:35:59.890Z,7.05
2022-09-28T08:38:28.344Z,9.00
2022-09-28T08:41:16.777Z,16.83
2022-09-28T08:44:08.254Z,10.25
2022-09-28T08:46:45.513Z,11.55
2022-09-28T08:49:36.351Z,17.63
2022-09-28T08:52:23.236Z,5.63
2022-09-28T08:55:26.731Z,8.70
2022-09-28T08:58:02.883Z,8.70
2022-09-28T09:00:50.863Z,7.97
2022-09-28T09:03:42.893Z,17.88
2022-09-28T09:06:32.359Z,12.50
2022-09-28T09:09:28.004Z,11.27
2022-09-28T09:12:16.815Z,7.60
2022-09-28T09:15:13.493Z,9.30
2022-09-28T09:21:31.188Z,14.40
2022-09-28T09:27:57.199Z,11.45
2022-09-28T09:30:31.311Z,14.18
2022-09-28T09:33:41.835Z,12.45
2022-09-28T09:36:42.560Z,10.63
2022-09-28T09:42:57.307Z,9.98
2022-09-28T09:45:58.944Z,10.75
2022-09-28T09:48:39.093Z,13.02
2022-09-28T09:51:34.795Z,7.95
2022-09-28T09:54:31.086Z,16.17
2022-09-28T09:57:31.130Z,18.75
2022-09-28T10:00:02.980Z,14.82
2022-09-28T10:02:44.923Z,13.00
2022-09-28T10:05:53.653Z,11.45
2022-09-28T10:08:46.791Z,11.68
2022-09-28T10:11:22.830Z,12.48
2022-09-28T10:14:03.197Z,13.38
2022-09-28T10:16:40.805Z,11.77
2022-09-28T10:19:16.103Z,8.63
2022-09-28T10:21:55.321Z,10.02
2022-09-28T10:24:58.743Z,6.80
2022-09-28T10:27:45.122Z,9.90
2022-09-28T10:30:27.155Z,15.88
2022-09-28T10:33:04.107Z,5.40
2022-09-28T10:36:06.131Z,10.27
2022-09-28T10:38:38.744Z,5.90
2022-09-28T10:41:24.281Z,11.68
2022-09-28T10:44:25.091Z,12.93
2022-09-28T10:47:09.342Z,11.55
2022-09-28T10:50:00.152Z,5.28
2022-09-28T10:52:56.291Z,15.57
2022-09-28T10:55:36.477Z,6.20
2022-09-28T10:58:26.230Z,11.60
2022-09-28T11:01:13.914Z,7.32
2022-09-28T11:04:08.778Z,4.95
2022-09-28T11:06:41.404Z,13.38
2022-09-28T11:09:52.900Z,10.45
2022-09-28T11:12:28.766Z,10.45
2022-09-28T11:15:18.418Z,9.43
2022-09-28T11:17:49.738Z,15.05
2022-09-28T11:20:28.211Z,12.77
2022-09-28T11:23:02.716Z,7.10
2022-09-28T11:25:42.094Z,5.60
2022-09-28T11:28:38.197Z,7.43
2022-09-28T11:31:14.897Z,8.95
2022-09-28T11:33:53.478Z,7.57
2022-09-28T11:37:00.957Z,9.57
2022-09-28T11:39:43.631Z,6.82
2022-09-28T11:45:55.117Z,8.40
2022-09-28T11:48:39.330Z,4.22
2022-09-28T11:51:18.832Z,10.48
2022-09-28T11:54:02.948Z,7.70
2022-09-28T11:56:39.599Z,6.60
2022-09-28T11:59:18.273Z,6.38
2022-09-28T12:05:20.520Z,11.75
2022-09-28T12:08:02.502Z,9.10
2022-09-28T12:11:09.641Z,6.90
2022-09-28T12:13:44.787Z,5.93
2022-09-28T12:17:00.944Z,4.80
2022-09-28T12:19:32.340Z,7.80
2022-09-28T12:22:11.339Z,8.63
2022-09-28T12:24:43.150Z,4.72
2022-09-28T12:30:34.587Z,5.53
2022-09-28T12:33:51.255Z,9.43
2022-09-28T12:36:20.870Z,9.63
2022-09-28T12:39:40.974Z,7.38
2022-09-28T12:42:33.286Z,7.75
2022-09-28T12:45:30.943Z,8.60
2022-09-28T12:48:35.477Z,7.75
2022-09-28T12:51:47.622Z,11.15
2022-09-28T12:54:52.607Z,7.22
2022-09-28T12:57:51.253Z,10.32
2022-09-28T13:00:26.212Z,17.20
2022-09-28T13:06:05.419Z,6.45
2022-09-28T13:08:56.584Z,6.95
2022-09-28T13:14:31.473Z,7.10
2022-09-28T13:17:08.716Z,5.85
2022-09-28T13:20:19.442Z,4.03
2022-09-28T13:23:09.142Z,5.28
2022-09-28T13:26:12.036Z,8.00
2022-09-28T13:28:49.604Z,8.18
2022-09-28T13:31:37.177Z,5.15
2022-09-28T13:37:36.701Z,8.60
2022-09-28T13:40:06.749Z,5.63
2022-09-28T13:43:03.131Z,7.65
2022-09-28T13:46:35.322Z,5.32
2022-09-28T13:49:22.879Z,14.60
2022-09-28T13:52:49.488Z,7.35
2022-09-28T13:55:40.118Z,11.95
2022-09-28T13:58:25.450Z,9.05
2022-09-28T14:01:10.468Z,6.32
2022-09-28T14:03:38.020Z,9.88
2022-09-28T14:06:53.516Z,7.15
2022-09-28T14:09:49.757Z,7.10
2022-09-28T14:12:52.239Z,12.18
2022-09-28T14:15:45.229Z,7.10
2022-09-28T14:19:09.994Z,4.72
2022-09-28T14:22:16.263Z,3.45
2022-09-28T14:25:23.368Z,5.10
2022-09-28T14:28:29.315Z,5.30
2022-09-28T14:31:34.414Z,6.68
2022-09-28T14:34:13.742Z,7.03
2022-09-28T14:37:09.665Z,5.93
2022-09-28T14:43:30.644Z,4.35
2022-09-28T14:46:21.000Z,8.27
2022-09-28T14:48:51.799Z,6.75
2022-09-28T14:51:32.134Z,4.03
2022-09-28T14:54:41.056Z,3.78
2022-09-28T14:57:39.981Z,5.85
2022-09-28T15:00:38.453Z,5.60
2022-09-28T15:06:35.097Z,4.22
2022-09-28T15:09:04.701Z,7.55
2022-09-28T15:11:44.651Z,4.05
2022-09-28T15:14:17.008Z,5.82
2022-09-28T15:17:01.424Z,7.53
2022-09-28T15:20:00.238Z,5.57
2022-09-28T15:22:36.258Z,9.35
2022-09-28T15:25:29.275Z,7.38
2022-09-28T15:28:19.226Z,5.30
2022-09-28T15:31:05.273Z,3.10
2022-09-28T15:33:59.307Z,5.32
2022-09-28T15:39:23.502Z,3.50
2022-09-28T15:42:05.669Z,4.15
2022-09-28T15:44:46.182Z,4.25
2022-09-28T15:47:28.362Z,2.92
2022-09-28T15:50:27.112Z,12.25
2022-09-28T15:53:26.356Z,6.13
2022-09-28T15:56:10.403Z,6.00
2022-09-28T15:58:46.693Z,2.30
2022-09-28T16:01:39.290Z,7.63
2022-09-28T16:04:47.793Z,4.47
2022-09-28T16:07:52.618Z,2.63
2022-09-28T16:10:33.548Z,4.45
2022-09-28T16:13:38.435Z,5.32
2022-09-28T16:16:26.491Z,6.30
2022-09-28T16:18:58.399Z,4.45
2022-09-28T16:21:49.356Z,9.45
2022-09-28T16:24:48.931Z,4.80
2022-09-28T16:27:40.140Z,2.80
2022-09-28T16:35:56.798Z,4.47
2022-09-28T16:38:26.132Z,4.50
2022-09-28T16:41:09.954Z,7.15
2022-09-28T16:43:51.330Z,4.55
2022-09-28T16:49:24.358Z,5.50
2022-09-28T16:52:03.338Z,3.15
2022-09-28T16:54:57.333Z,4.50
2022-09-28T16:57:32.707Z,5.75
2022-09-28T17:00:04.359Z,6.07
2022-09-28T17:02:46.158Z,5.15
2022-09-28T17:05:23.229Z,5.03
2022-09-28T17:08:07.161Z,3.70
2022-09-28T17:11:24.189Z,7.95
2022-09-28T17:14:10.238Z,5.07
2022-09-28T17:17:56.150Z,4.22
2022-09-28T17:19:59.390Z,3.50
2022-09-28T17:22:39.461Z,8.30
2022-09-28T17:25:19.689Z,4.97
2022-09-28T17:28:00.592Z,8.43
2022-09-28T17:30:36.414Z,4.30
2022-09-28T17:33:07.483Z,6.72
2022-09-28T17:38:24.714Z,6.05
2022-09-28T17:41:06.021Z,8.15
2022-09-28T17:43:49.768Z,7.05
2022-09-28T17:46:42.874Z,7.10
2022-09-28T17:49:15.972Z,10.93
2022-09-28T17:51:53.111Z,6.20
2022-09-28T17:54:30.748Z,5.60
2022-09-28T17:59:44.048Z,4.75
2022-09-28T18:02:18.281Z,4.72
2022-09-28T18:04:54.176Z,5.28
2022-09-28T18:07:25.652Z,3.15
2022-09-28T18:10:22.960Z,6.53
2022-09-28T18:12:59.051Z,2.35
2022-09-28T18:15:50.861Z,3.53
2022-09-28T18:18:18.918Z,8.40
2022-09-28T18:23:42.381Z,2.97
2022-09-28T18:26:29.931Z,3.20
2022-09-28T18:29:04.502Z,5.03
2022-09-28T18:31:40.082Z,2.83
2022-09-28T18:34:32.197Z,5.38
2022-09-28T18:37:08.339Z,3.88
2022-09-28T18:39:48.061Z,4.63
2022-09-28T18:42:26.675Z,5.07
2022-09-28T18:45:01.074Z,9.30
2022-09-28T18:47:27.934Z,1.73
2022-09-28T18:49:54.495Z,9.07
2022-09-28T18:52:21.327Z,6.45
2022-09-28T18:54:50.231Z,7.95
2022-09-28T18:57:17.212Z,8.52
2022-09-28T19:00:10.463Z,8.90
2022-09-28T19:02:44.715Z,13.88
2022-09-28T19:05:20.880Z,19.60
2022-09-28T19:07:50.351Z,12.95
2022-09-28T19:10:34.266Z,8.48
2022-09-28T19:13:15.752Z,13.52
2022-09-28T19:15:45.977Z,19.40
2022-09-28T19:18:22.094Z,10.52
2022-09-28T19:21:07.432Z,16.90
2022-09-28T19:23:48.952Z,11.75
2022-09-28T19:26:20.436Z,6.30
2022-09-28T19:28:51.075Z,11.38
2022-09-28T19:31:23.337Z,6.03
2022-09-28T19:33:56.555Z,6.13
2022-09-28T19:36:25.623Z,5.68
2022-09-28T19:38:53.180Z,5.68
2022-09-28T19:41:43.435Z,9.65
2022-09-28T19:44:21.651Z,6.43
2022-09-28T19:47:10.839Z,7.10
2022-09-28T19:50:06.381Z,2.95
2022-09-28T19:52:35.341Z,5.75
2022-09-28T19:55:11.994Z,17.40
2022-09-28T19:57:51.186Z,4.50
2022-09-28T20:00:39.960Z,5.32
2022-09-28T20:03:22.238Z,2.70
2022-09-28T20:05:49.362Z,3.25
2022-09-28T20:08:16.459Z,3.13
2022-09-28T20:10:52.370Z,10.07
2022-09-28T20:13:20.212Z,5.22
2022-09-28T20:16:05.697Z,6.35
2022-09-28T20:18:43.527Z,8.57
2022-09-28T20:21:26.932Z,3.40
2022-09-28T20:23:58.214Z,2.67
2022-09-28T20:31:49.067Z,4.25
2022-09-28T20:34:31.905Z,3.92
2022-09-28T20:36:58.510Z,5.18
2022-09-28T20:40:00.712Z,6.82
2022-09-28T20:42:33.434Z,4.25
2022-09-28T20:45:07.455Z,3.70
2022-09-28T20:47:43.902Z,5.57
2022-09-28T20:50:14.107Z,4.00
2022-09-28T20:52:50.170Z,5.33
2022-09-28T20:55:25.867Z,6.50
2022-09-28T20:58:08.649Z,4.70
2022-09-28T21:00:36.607Z,3.25
2022-09-28T21:06:16.489Z,6.88
2022-09-28T21:08:49.678Z,3.67
2022-09-28T21:14:13.429Z,7.63
2022-09-28T21:16:50.271Z,3.28
2022-09-28T21:19:24.994Z,10.88
2022-09-28T21:21:54.922Z,5.13
2022-09-28T21:24:22.960Z,4.90
2022-09-28T21:27:00.272Z,7.45
2022-09-28T21:29:31.664Z,3.15
2022-09-28T21:32:00.806Z,3.50
2022-09-28T21:34:46.327Z,3.97
2022-09-28T21:37:23.007Z,7.88
2022-09-28T21:39:50.999Z,8.98
2022-09-28T21:42:18.083Z,8.73
2022-09-28T21:45:01.074Z,8.20
2022-09-28T21:47:50.173Z,10.07
2022-09-28T21:50:22.847Z,11.20
2022-09-28T21:52:59.412Z,10.73
2022-09-28T21:55:42.391Z,7.35
2022-09-28T21:58:19.668Z,8.88
2022-09-28T22:03:52.233Z,12.00
2022-09-28T22:06:29.458Z,7.93
2022-09-28T22:08:57.483Z,9.95
2022-09-28T22:11:35.920Z,7.40
2022-09-28T22:14:19.432Z,7.38
2022-09-28T22:17:25.342Z,5.93
2022-09-28T22:20:11.227Z,6.40
2022-09-28T22:22:39.811Z,9.15
2022-09-28T22:28:19.234Z,13.48
2022-09-28T22:31:00.254Z,9.88
2022-09-28T22:33:59.156Z,11.68
2022-09-28T22:36:47.938Z,11.73
2022-09-28T22:39:14.727Z,7.05
2022-09-28T22:41:52.050Z,9.05
2022-09-28T22:44:34.025Z,6.50
2022-09-28T22:47:02.962Z,9.23
2022-09-28T22:49:32.754Z,13.68
2022-09-28T22:52:02.822Z,6.93
2022-09-28T22:54:38.464Z,10.18
2022-09-28T22:57:10.326Z,6.57
2022-09-28T23:00:15.923Z,11.80
2022-09-28T23:05:23.643Z,16.90
2022-09-28T23:10:53.319Z,13.40
2022-09-28T23:14:19.577Z,8.95
2022-09-28T23:16:52.621Z,8.10
2022-09-28T23:19:19.499Z,13.45
2022-09-28T23:21:50.114Z,9.45
2022-09-28T23:24:31.607Z,9.48
2022-09-28T23:26:58.254Z,11.07
2022-09-28T23:29:29.366Z,8.63
2022-09-28T23:31:58.480Z,9.52
2022-09-28T23:34:29.062Z,13.43
2022-09-28T23:37:04.281Z,13.68
2022-09-28T23:39:35.519Z,13.25
2022-09-28T23:42:07.278Z,9.63
2022-09-28T23:44:33.822Z,11.30
2022-09-28T23:47:00.417Z,10.77
2022-09-28T23:49:27.002Z,14.98
2022-09-28T23:51:56.042Z,9.52
2022-09-28T23:54:38.753Z,10.88
2022-09-28T23:59:59.278Z,8.63
